.
WxDataArchive / Data Records for 2013-08-18
2013-08-17 August 2013 2013-08-19

Data Records for Sunday, 18 August 2013

Time	Temp	Chill	HIndex	Humid	Dewpt	 Wind 	HiWind	WindDir	Rain 	Barom 
-----	----	-----	------	-----	-----	------	------	-------	-----	----- 
00:00	64.5	64.5	64.5	79	57.8	0	0	---	0.00	30.154 
00:05	64.5	64.5	64.5	79	57.8	0	0	---	0.00	30.154 
00:10	64.3	64.3	64.3	79	57.6	0	0	---	0.00	30.154 
00:15	64.3	64.3	64.3	79	57.6	0	0	---	0.00	30.154 
00:20	64.2	64.2	64.2	79	57.5	0	0	---	0.00	30.154 
00:25	64.0	64.0	64.0	79	57.4	0	0	---	0.00	30.154 
00:30	63.9	63.9	63.9	80	57.6	0	1	90	0.00	30.160 
00:35	63.7	63.7	63.7	80	57.4	0	0	---	0.00	30.160 
00:40	63.4	63.4	63.4	80	57.1	0	0	---	0.00	30.160 
00:45	63.4	63.4	63.4	80	57.1	0	0	---	0.00	30.159 
00:50	63.2	63.2	63.2	81	57.3	0	0	---	0.00	30.159 
00:55	63.1	63.1	63.1	81	57.2	0	1	90	0.00	30.159 
01:00	62.9	62.9	62.9	81	57.0	0	0	---	0.00	30.160 
01:05	62.7	62.7	62.7	81	56.8	0	0	---	0.00	30.160 
01:10	62.6	62.6	62.6	81	56.7	0	0	---	0.00	30.160 
01:15	62.4	62.4	62.4	81	56.5	0	0	---	0.00	30.161 
01:20	62.4	62.4	62.4	81	56.5	0	0	---	0.00	30.161 
01:25	62.3	62.3	62.3	81	56.4	0	0	---	0.00	30.161 
01:30	62.3	62.3	62.3	81	56.4	0	0	---	0.00	30.161 
01:35	62.3	62.3	62.3	81	56.4	0	0	---	0.00	30.161 
01:40	62.3	62.3	62.3	81	56.4	0	0	---	0.00	30.161 
01:45	62.1	62.1	62.1	81	56.2	0	0	---	0.00	30.161 
01:50	62.1	62.1	62.1	81	56.2	0	0	---	0.00	30.161 
01:55	62.0	62.0	62.0	81	56.1	0	0	---	0.00	30.161 
02:00	62.0	62.0	62.0	81	56.1	0	0	---	0.00	30.158 
02:05	61.8	61.8	61.8	81	55.9	0	0	---	0.00	30.158 
02:10	61.6	61.6	61.6	82	56.0	0	0	---	0.00	30.158 
02:15	61.6	61.6	61.6	82	56.0	0	0	---	0.00	30.161 
02:20	61.6	61.6	61.6	82	56.0	0	0	---	0.00	30.161 
02:25	61.5	61.5	61.5	82	55.9	0	0	---	0.00	30.161 
02:30	61.3	61.3	61.3	82	55.8	0	0	---	0.00	30.162 
02:35	61.3	61.3	61.3	82	55.8	0	0	---	0.00	30.162 
02:40	61.3	61.3	61.3	82	55.8	0	1	90	0.00	30.162 
02:45	61.3	61.3	61.3	83	56.1	0	0	---	0.00	30.156 
02:50	61.2	61.2	61.2	83	56.0	0	0	---	0.00	30.156 
02:55	61.0	61.0	61.0	83	55.8	0	0	---	0.00	30.156 
03:00	60.9	60.9	60.9	84	56.0	0	0	---	0.00	30.153 
03:05	60.9	60.9	60.9	84	56.0	0	0	---	0.00	30.153 
03:10	60.7	60.7	60.7	84	55.8	0	0	---	0.00	30.153 
03:15	60.5	60.5	60.5	84	55.6	0	0	---	0.00	30.153 
03:20	60.4	60.4	60.4	85	55.9	0	0	---	0.00	30.153 
03:25	60.2	60.2	60.2	85	55.7	0	0	---	0.00	30.153 
03:30	60.2	60.2	60.2	85	55.7	0	0	---	0.00	30.149 
03:35	60.1	60.1	60.1	86	55.9	0	0	---	0.00	30.149 
03:40	59.9	59.9	59.9	86	55.7	0	0	---	0.00	30.149 
03:45	59.9	59.9	59.9	86	55.7	0	0	---	0.00	30.145 
03:50	59.8	59.8	59.8	87	55.9	0	0	---	0.00	30.145 
03:55	59.8	59.8	59.8	87	55.9	0	0	---	0.00	30.145 
04:00	59.6	59.6	59.6	87	55.7	0	0	---	0.00	30.145 
04:05	59.6	59.6	59.6	88	56.0	0	0	---	0.00	30.145 
04:10	59.6	59.6	59.6	88	56.0	0	0	---	0.00	30.145 
04:15	59.6	59.6	59.6	88	56.0	0	0	---	0.00	30.140 
04:20	59.6	59.6	59.6	88	56.0	0	0	---	0.00	30.140 
04:25	59.5	59.5	59.5	88	55.9	0	0	---	0.00	30.140 
04:30	59.5	59.5	59.5	88	55.9	0	0	---	0.00	30.139 
04:35	59.5	59.5	59.5	88	55.9	0	0	---	0.00	30.139 
04:40	59.5	59.5	59.5	88	55.9	0	1	90	0.00	30.139 
04:45	59.5	59.5	59.5	88	55.9	0	0	---	0.00	30.137 
04:50	59.3	59.3	59.3	89	56.1	0	0	---	0.00	30.137 
04:55	59.3	59.3	59.3	89	56.1	0	0	---	0.00	30.137 
05:00	59.2	59.2	59.2	89	56.0	0	0	---	0.00	30.143 
05:05	59.2	59.2	59.2	89	56.0	0	0	---	0.00	30.143 
05:10	59.0	59.0	59.0	89	55.8	0	0	---	0.00	30.143 
05:15	58.9	58.9	58.9	89	55.7	0	0	---	0.00	30.142 
05:20	58.9	58.9	58.9	89	55.7	0	0	---	0.00	30.142 
05:25	58.7	58.7	58.7	89	55.5	0	0	---	0.00	30.142 
05:30	58.7	58.7	58.7	90	55.8	0	0	---	0.00	30.144 
05:35	58.6	58.6	58.6	90	55.7	0	0	---	0.00	30.144 
05:40	58.6	58.6	58.6	90	55.7	0	0	---	0.00	30.144 
05:45	58.4	58.4	58.4	90	55.5	0	0	---	0.00	30.144 
05:50	58.4	58.4	58.4	91	55.8	0	0	---	0.00	30.144 
05:55	58.3	58.3	58.3	91	55.7	0	0	---	0.00	30.144 
06:00	58.1	58.1	58.1	91	55.5	0	0	---	0.00	30.145 
06:05	58.1	58.1	58.1	91	55.5	0	0	---	0.00	30.145 
06:10	58.0	58.0	58.0	91	55.4	0	0	---	0.00	30.145 
06:15	57.8	57.8	57.8	91	55.2	0	0	---	0.00	30.150 
06:20	57.6	57.6	57.6	92	55.3	0	0	---	0.00	30.150 
06:25	57.5	57.5	57.5	92	55.2	0	0	---	0.00	30.150 
06:30	57.3	57.3	57.3	92	55.0	0	0	---	0.00	30.161 
06:35	57.2	57.2	57.2	92	54.9	0	0	---	0.00	30.161 
06:40	57.2	57.2	57.2	92	54.9	0	0	---	0.00	30.161 
06:45	57.0	57.0	57.0	92	54.7	0	0	---	0.00	30.165 
06:50	57.0	57.0	57.0	92	54.7	0	0	---	0.00	30.165 
06:55	57.0	57.0	57.0	92	54.7	0	0	---	0.00	30.165 
07:00	57.0	57.0	57.0	92	54.7	0	0	---	0.00	30.166 
07:05	57.0	57.0	57.0	93	55.0	0	0	---	0.00	30.166 
07:10	57.2	57.2	57.2	93	55.2	0	0	---	0.00	30.166 
07:15	57.3	57.3	57.3	93	55.3	0	0	---	0.00	30.170 
07:20	57.3	57.3	57.3	93	55.3	0	0	---	0.00	30.170 
07:25	57.5	57.5	57.5	93	55.5	0	0	---	0.00	30.170 
07:30	57.6	57.6	57.6	93	55.6	0	0	---	0.00	30.172 
07:35	57.8	57.8	57.8	94	56.1	0	0	---	0.00	30.172 
07:40	57.8	57.8	57.8	94	56.1	0	0	---	0.00	30.172 
07:45	58.0	58.0	58.0	94	56.3	0	0	---	0.00	30.175 
07:50	58.1	58.1	58.1	94	56.4	0	0	---	0.00	30.175 
07:55	58.3	58.3	58.3	94	56.6	0	0	---	0.00	30.175 
08:00	58.4	58.4	58.4	94	56.7	0	0	---	0.00	30.174 
08:05	58.7	58.7	58.7	94	57.0	0	0	---	0.00	30.174 
08:10	59.0	59.0	59.0	94	57.3	0	0	---	0.00	30.174 
08:15	59.3	59.3	59.3	95	57.9	0	1	90	0.00	30.182 
08:20	59.6	59.6	59.6	94	57.9	0	1	90	0.00	30.182 
08:25	59.8	59.8	59.8	94	58.1	0	1	90	0.00	30.182 
08:30	59.9	59.9	59.9	94	58.2	0	1	90	0.00	30.185 
08:35	60.4	60.4	60.4	94	58.7	0	1	90	0.00	30.185 
08:40	61.3	61.3	61.3	94	59.6	1	3	90	0.00	30.185 
08:45	61.8	61.8	61.8	92	59.4	1	3	90	0.00	30.183 
08:50	62.1	62.1	62.1	91	59.4	1	3	90	0.00	30.183 
08:55	62.4	62.4	62.4	90	59.4	0	2	90	0.00	30.183 
09:00	62.9	62.9	62.9	90	59.9	0	2	90	0.00	30.185 
09:05	63.1	63.1	63.1	89	59.8	0	1	90	0.00	30.185 
09:10	63.4	63.4	63.4	88	59.8	0	1	90	0.00	30.185 
09:15	63.9	63.9	63.9	88	60.3	0	0	---	0.00	30.188 
09:20	64.3	64.3	64.3	88	60.7	0	1	90	0.00	30.188 
09:25	64.7	64.7	64.7	87	60.7	0	1	90	0.00	30.188 
09:30	65.3	65.3	65.3	86	61.0	0	1	90	0.00	30.182 
09:35	66.0	66.0	66.0	85	61.4	0	1	90	0.00	30.182 
09:40	66.4	66.4	66.4	83	61.1	1	3	90	0.00	30.182 
09:45	66.9	66.9	66.9	81	60.9	0	2	90	0.00	30.179 
09:50	67.6	67.6	67.6	80	61.2	0	2	90	0.00	30.179 
09:55	68.3	68.3	68.3	78	61.2	1	3	90	0.00	30.179 
10:00	68.6	68.6	68.6	78	61.5	1	3	90	0.00	30.180 
10:05	68.9	68.9	68.9	79	62.1	1	2	90	0.00	30.180 
10:10	69.4	69.4	69.4	77	61.9	0	2	90	0.00	30.180 
10:15	69.9	69.9	69.9	76	62.0	0	3	90	0.00	30.180 
10:20	70.3	70.3	70.3	75	62.0	1	3	90	0.00	30.180 
10:25	70.4	70.4	70.4	74	61.7	1	4	90	0.00	30.180 
10:30	70.9	70.9	70.9	75	62.6	0	2	90	0.00	30.178 
10:35	71.8	71.8	71.8	73	62.7	0	2	90	0.00	30.178 
10:40	72.5	72.5	72.5	73	63.3	0	2	90	0.00	30.178 
10:45	73.0	73.0	73.0	72	63.4	0	2	90	0.00	30.178 
10:50	73.7	73.7	73.7	72	64.1	0	3	90	0.00	30.178 
10:55	74.0	74.0	74.0	69	63.2	1	3	90	0.00	30.178 
11:00	74.4	74.4	74.4	68	63.1	1	3	90	0.00	30.181 
11:05	74.6	74.6	74.6	70	64.2	0	1	90	0.00	30.181 
11:10	74.6	74.6	74.6	68	63.3	0	2	90	0.00	30.181 
11:15	75.1	75.1	77.0	67	63.4	1	3	90	0.00	30.178 
11:20	75.4	75.4	77.1	69	64.5	0	2	90	0.00	30.178 
11:25	76.1	76.1	77.9	66	63.9	0	2	90	0.00	30.178 
11:30	76.8	76.8	78.6	65	64.1	1	3	90	0.00	30.175 
11:35	77.4	77.4	79.2	63	63.8	1	2	90	0.00	30.175 
11:40	77.6	77.6	79.4	62	63.5	1	4	90	0.00	30.175 
11:45	77.7	77.7	79.4	61	63.2	1	3	90	0.00	30.174 
11:50	77.9	77.9	79.7	63	64.3	1	3	90	0.00	30.174 
11:55	77.9	77.9	79.6	60	62.9	1	4	90	0.00	30.174 
12:00	77.6	77.6	79.3	59	62.1	0	1	90	0.00	30.170 
12:05	77.9	77.9	79.5	59	62.4	2	5	68	0.00	30.170 
12:10	77.7	77.7	79.2	55	60.2	1	3	68	0.00	30.170 
12:15	78.3	78.3	79.9	59	62.8	1	4	68	0.00	30.168 
12:20	78.6	78.6	80.1	58	62.6	1	4	68	0.00	30.168 
12:25	79.0	79.0	80.3	54	60.9	1	3	68	0.00	30.168 
12:30	79.8	79.8	80.7	51	60.0	1	2	135	0.00	30.163 
12:35	80.1	80.1	81.0	51	60.3	0	3	135	0.00	30.163 
12:40	80.5	80.5	80.8	46	57.8	1	4	135	0.00	30.163 
12:45	80.3	80.3	81.0	49	59.4	1	4	112	0.00	30.160 
12:50	79.8	79.8	80.5	49	58.9	1	3	112	0.00	30.160 
12:55	79.9	79.9	80.4	46	57.2	2	6	90	0.00	30.160 
13:00	79.8	79.8	80.3	46	57.2	0	3	90	0.00	30.157 
13:05	79.6	79.6	80.0	45	56.4	0	3	90	0.00	30.157 
13:10	80.5	80.5	80.7	45	57.2	1	4	90	0.00	30.157 
13:15	80.3	80.3	80.7	46	57.6	1	3	90	0.00	30.155 
13:20	79.9	79.9	80.3	45	56.6	1	5	90	0.00	30.155 
13:25	80.3	80.3	80.4	43	55.7	1	2	90	0.00	30.155 
13:30	80.9	80.9	81.0	44	56.9	1	2	90	0.00	30.154 
13:35	81.2	81.2	81.2	44	57.2	0	2	112	0.00	30.154 
13:40	81.6	81.6	81.3	42	56.3	1	4	112	0.00	30.154 
13:45	81.1	81.1	80.9	42	55.8	2	5	90	0.00	30.153 
13:50	80.9	80.9	81.0	44	56.9	2	6	90	0.00	30.153 
13:55	80.5	80.5	80.7	45	57.2	2	6	90	0.00	30.153 
14:00	80.1	80.1	80.3	43	55.6	1	5	90	0.00	30.148 
14:05	79.9	79.9	80.2	44	56.0	1	3	90	0.00	30.148 
14:10	79.2	79.2	79.8	46	56.6	1	5	90	0.00	30.148 
14:15	79.6	79.6	79.7	41	53.8	1	2	135	0.00	30.147 
14:20	79.9	79.9	80.0	42	54.7	2	5	90	0.00	30.147 
14:25	80.5	80.5	80.6	44	56.6	1	2	112	0.00	30.147 
14:30	81.1	81.1	80.9	42	55.8	1	3	112	0.00	30.142 
14:35	81.4	81.4	81.3	43	56.7	1	4	112	0.00	30.142 
14:40	81.6	81.6	81.3	42	56.3	1	3	112	0.00	30.142 
14:45	81.6	81.6	81.2	41	55.6	1	5	68	0.00	30.138 
14:50	82.0	82.0	81.7	42	56.6	1	4	112	0.00	30.138 
14:55	82.2	82.2	81.9	42	56.8	1	4	135	0.00	30.138 
15:00	82.2	82.2	81.9	42	56.8	1	5	90	0.00	30.134 
15:05	81.8	81.8	81.5	42	56.4	1	3	90	0.00	30.134 
15:10	81.6	81.6	81.6	44	57.5	1	3	90	0.00	30.134 
15:15	82.0	82.0	82.3	47	59.8	1	3	135	0.00	30.129 
15:20	81.8	81.8	81.8	44	57.7	2	5	112	0.00	30.129 
15:25	81.2	81.2	81.3	45	57.8	2	6	90	0.00	30.129 
15:30	80.9	80.9	81.1	45	57.5	2	7	45	0.00	30.127 
15:35	80.9	80.9	81.1	45	57.5	2	5	68	0.00	30.127 
15:40	80.9	80.9	80.9	43	56.3	2	5	90	0.00	30.127 
15:45	80.9	80.9	81.1	45	57.5	1	3	90	0.00	30.120 
15:50	81.2	81.2	80.8	40	54.6	0	2	90	0.00	30.120 
15:55	81.6	81.6	81.5	43	56.9	1	3	90	0.00	30.120 
16:00	81.6	81.6	81.7	45	58.2	1	3	90	0.00	30.114 
16:05	80.9	80.9	81.1	45	57.5	1	3	112	0.00	30.114 
16:10	79.8	79.8	80.3	46	57.2	2	5	112	0.00	30.114 
16:15	79.6	79.6	80.1	46	57.0	1	3	90	0.00	30.114 
16:20	80.1	80.1	80.5	46	57.4	0	2	90	0.00	30.114 
16:25	80.5	80.5	80.6	44	56.6	1	4	90	0.00	30.114 
16:30	80.9	80.9	81.0	44	56.9	1	5	90	0.00	30.109 
16:35	80.9	80.9	81.0	44	56.9	1	3	90	0.00	30.109 
16:40	80.9	80.9	81.0	44	56.9	2	3	90	0.00	30.109 
16:45	80.9	80.9	80.8	42	55.6	0	2	90	0.00	30.101 
16:50	80.9	80.9	80.8	42	55.6	1	3	90	0.00	30.101 
16:55	81.2	81.2	81.1	43	56.5	0	2	68	0.00	30.101 
17:00	81.6	81.6	81.5	43	56.9	0	2	68	0.00	30.100 
17:05	81.8	81.8	81.5	42	56.4	1	3	68	0.00	30.100 
17:10	82.2	82.2	81.9	42	56.8	0	2	90	0.00	30.100 
17:15	82.2	82.2	82.0	43	57.4	1	3	90	0.00	30.101 
17:20	82.0	82.0	81.7	42	56.6	1	3	112	0.00	30.101 
17:25	82.0	82.0	81.7	42	56.6	0	2	112	0.00	30.101 
17:30	81.8	81.8	81.6	43	57.1	0	2	112	0.00	30.100 
17:35	81.4	81.4	81.4	44	57.4	0	2	112	0.00	30.100 
17:40	81.1	81.1	81.1	44	57.1	1	3	112	0.00	30.100 
17:45	80.9	80.9	81.1	45	57.5	1	4	135	0.00	30.102 
17:50	80.3	80.3	80.6	45	57.0	2	5	90	0.00	30.102 
17:55	79.9	79.9	80.4	46	57.2	2	4	90	0.00	30.102 
18:00	79.8	79.8	80.4	47	57.8	1	3	90	0.00	30.098 
18:05	79.6	79.6	80.1	46	57.0	1	5	90	0.00	30.098 
18:10	79.4	79.4	79.9	45	56.2	0	2	90	0.00	30.098 
18:15	79.6	79.6	80.2	47	57.6	0	1	90	0.00	30.099 
18:20	79.6	79.6	80.2	47	57.6	0	1	90	0.00	30.099 
18:25	79.4	79.4	79.8	44	55.6	0	1	90	0.00	30.099 
18:30	79.0	79.0	79.8	47	57.0	0	0	---	0.00	30.099 
18:35	78.6	78.6	79.4	46	56.1	0	2	90	0.00	30.099 
18:40	78.6	78.6	79.4	46	56.1	0	1	90	0.00	30.099 
18:45	78.5	78.5	79.4	46	56.0	0	1	90	0.00	30.098 
18:50	78.5	78.5	79.4	46	56.0	0	2	90	0.00	30.098 
18:55	78.3	78.3	79.3	48	57.0	0	1	90	0.00	30.098 
19:00	78.1	78.1	79.2	48	56.8	0	2	90	0.00	30.092 
19:05	77.9	77.9	79.1	49	57.2	0	1	90	0.00	30.092 
19:10	77.7	77.7	78.9	48	56.4	0	1	90	0.00	30.092 
19:15	77.6	77.6	78.9	48	56.3	0	1	90	0.00	30.090 
19:20	77.6	77.6	78.9	49	56.9	0	1	90	0.00	30.090 
19:25	77.4	77.4	78.8	50	57.3	0	1	90	0.00	30.090 
19:30	77.2	77.2	78.7	50	57.1	0	0	---	0.00	30.095 
19:35	76.8	76.8	78.5	52	57.8	0	0	---	0.00	30.095 
19:40	76.5	76.5	78.3	51	57.0	0	0	---	0.00	30.095 
19:45	76.3	76.3	78.2	52	57.4	0	0	---	0.00	30.098 
19:50	76.1	76.1	78.1	52	57.2	0	0	---	0.00	30.098 
19:55	75.8	75.8	78.0	53	57.4	0	0	---	0.00	30.098 
20:00	75.6	75.6	77.9	54	57.8	0	0	---	0.00	30.098 
20:05	75.3	75.3	77.7	55	58.0	0	0	---	0.00	30.098 
20:10	75.1	75.1	77.6	56	58.3	0	0	---	0.00	30.098 
20:15	74.7	74.7	74.7	57	58.4	0	0	---	0.00	30.095 
20:20	74.4	74.4	74.4	58	58.6	0	0	---	0.00	30.095 
20:25	73.9	73.9	73.9	58	58.2	0	0	---	0.00	30.095 
20:30	73.5	73.5	73.5	58	57.8	0	0	---	0.00	30.099 
20:35	73.2	73.2	73.2	60	58.5	0	0	---	0.00	30.099 
20:40	73.0	73.0	73.0	62	59.2	0	0	---	0.00	30.099 
20:45	72.5	72.5	72.5	63	59.2	0	0	---	0.00	30.100 
20:50	72.0	72.0	72.0	63	58.7	0	0	---	0.00	30.100 
20:55	71.6	71.6	71.6	63	58.3	0	0	---	0.00	30.100 
21:00	71.1	71.1	71.1	64	58.3	0	0	---	0.00	30.102 
21:05	70.8	70.8	70.8	65	58.4	0	0	---	0.00	30.102 
21:10	70.4	70.4	70.4	66	58.5	0	0	---	0.00	30.102 
21:15	70.3	70.3	70.3	67	58.8	0	0	---	0.00	30.100 
21:20	69.9	69.9	69.9	69	59.3	0	0	---	0.00	30.100 
21:25	69.6	69.6	69.6	70	59.4	0	0	---	0.00	30.100 
21:30	69.3	69.3	69.3	72	59.9	0	0	---	0.00	30.101 
21:35	69.1	69.1	69.1	72	59.7	0	0	---	0.00	30.101 
21:40	68.8	68.8	68.8	73	59.8	0	0	---	0.00	30.101 
21:45	68.4	68.4	68.4	73	59.4	0	0	---	0.00	30.105 
21:50	68.3	68.3	68.3	74	59.7	0	0	---	0.00	30.105 
21:55	68.1	68.1	68.1	74	59.5	0	0	---	0.00	30.105 
22:00	67.8	67.8	67.8	74	59.2	0	0	---	0.00	30.114 
22:05	67.6	67.6	67.6	75	59.4	0	0	---	0.00	30.114 
22:10	67.4	67.4	67.4	76	59.6	0	0	---	0.00	30.114 
22:15	67.3	67.3	67.3	76	59.5	0	0	---	0.00	30.111 
22:20	67.1	67.1	67.1	77	59.6	0	0	---	0.00	30.111 
22:25	67.1	67.1	67.1	77	59.6	0	0	---	0.00	30.111 
22:30	66.9	66.9	66.9	77	59.4	0	0	---	0.00	30.112 
22:35	66.9	66.9	66.9	77	59.4	0	0	---	0.00	30.112 
22:40	66.8	66.8	66.8	77	59.3	0	0	---	0.00	30.112 
22:45	66.6	66.6	66.6	77	59.2	0	0	---	0.00	30.110 
22:50	66.4	66.4	66.4	78	59.3	0	0	---	0.00	30.110 
22:55	66.3	66.3	66.3	78	59.2	0	0	---	0.00	30.110 
23:00	66.0	66.0	66.0	79	59.3	0	0	---	0.00	30.107 
23:05	65.8	65.8	65.8	80	59.5	0	0	---	0.00	30.107 
23:10	65.6	65.6	65.6	80	59.3	0	0	---	0.00	30.107 
23:15	65.5	65.5	65.5	81	59.5	0	0	---	0.00	30.105 
23:20	65.2	65.2	65.2	81	59.2	0	0	---	0.00	30.105 
23:25	65.0	65.0	65.0	81	59.0	0	0	---	0.00	30.105 
23:30	64.8	64.8	64.8	82	59.2	0	0	---	0.00	30.106 
23:35	64.7	64.7	64.7	82	59.1	0	0	---	0.00	30.106 
23:40	64.5	64.5	64.5	83	59.2	0	0	---	0.00	30.106 
23:45	64.3	64.3	64.3	83	59.0	0	0	---	0.00	30.107 
23:50	64.2	64.2	64.2	83	58.9	0	0	---	0.00	30.107 
23:55	64.0	64.0	64.0	84	59.1	0	0	---	0.00	30.107 

CoCoRaHS
IN-AL-39
A2 Web Hosting
Creative Commons License
GoDaddy
search engine by freefind advanced

loaded 2018-11-15 04:10:25 • last modified 2010-11-18 10:43:29
Privacy PolicyDisclaimer
• wx.awcolley.com is powered by PmWiki v.2002016 •
• all content (unless otherwise noted) © 2018 A W Colley